Terminal Aerodrome Forecast
Issued by NWS

Home | Current Version | Previous Version | Text Only | Print | Product List | Glossary On
Versions: 1 2 3 4 5 6 7 8 9 10 11 12 13 14 15 16 17
000
FTUS45 KABQ 231700
TAFTCC
TAF
KTCC 231720Z 2318/2418 22020G30KT P6SM SCT250
     FM232000 24026G36KT P6SM FEW120
     FM240200 27014G24KT P6SM SCT100
     FM240400 30014KT P6SM FEW100
     FM240800 35007KT P6SM SKC=

USA.gov is the U.S. government's official web portal to all federal, state and local government web resources and services.